Time;durP1;ratioP1;P1;durP2;ratioP2;P2;SDS_P1;SDS_P2;PMS_P1;PMS_P2;Temp;Humidity;BMP_temperature;BMP_pressure;BME280_temperature;BME280_humidity;BME280_pressure;Samples;Min_cycle;Max_cycle;Signal;HPM_P1;HPM_P2
2022/06/20 00:03:30;;;;;;;9.20;3.30;;;;;;;;;;21003063;28;20060;-60
2022/06/20 00:13:43;;;;;;;6.88;2.45;;;;;;;;;;21003137;28;20049;-61
2022/06/20 00:24:05;;;;;;;5.32;2.25;;;;;;;;;;21003495;28;20052;-61
2022/06/20 00:34:26;;;;;;;6.50;2.60;;;;;;;;;;21000919;28;20049;-61
2022/06/20 00:44:50;;;;;;;5.00;2.23;;;;;;;;;;21000554;28;20613;-60
2022/06/20 00:55:15;;;;;;;4.10;2.22;;;;;;;;;;20999164;28;20048;-60
2022/06/20 01:05:40;;;;;;;5.93;2.25;;;;;;;;;;20997847;28;20450;-59
2022/06/20 01:16:07;;;;;;;8.23;2.33;;;;;;;;;;20998845;28;20476;-60
2022/06/20 01:26:47;;;;;;;7.00;2.70;;;;;;;;;;20997671;28;20485;-60
2022/06/20 01:37:23;;;;;;;7.93;2.40;;;;;;;;;;20998208;28;20052;-60
2022/06/20 01:47:44;;;;;;;6.25;2.60;;;;;;;;;;20996378;28;20052;-60
2022/06/20 01:58:09;;;;;;;5.70;2.40;;;;;;;;;;20997072;28;20821;-60
2022/06/20 02:08:31;;;;;;;4.53;2.72;;;;;;;;;;20995600;28;20049;-60
2022/06/20 02:18:55;;;;;;;7.75;2.40;;;;;;;;;;21010279;28;20055;-59
2022/06/20 02:29:24;;;;;;;7.15;2.10;;;;;;;;;;21011021;28;20059;-61
2022/06/20 02:39:45;;;;;;;6.03;2.30;;;;;;;;;;21012635;28;20055;-60
2022/06/20 02:50:07;;;;;;;7.37;2.43;;;;;;;;;;21008108;28;20529;-59
2022/06/20 03:00:34;;;;;;;5.90;2.35;;;;;;;;;;21008240;28;20052;-61
2022/06/20 03:10:57;;;;;;;6.50;1.95;;;;;;;;;;21007983;28;20496;-61
2022/06/20 03:21:18;;;;;;;;;;;;;;;;;;21007241;28;20098;-60
2022/06/20 03:31:40;;;;;;;4.88;1.98;;;;;;;;;;21006646;28;19920;-60
2022/06/20 03:42:02;;;;;;;6.70;2.03;;;;;;;;;;21006485;28;20499;-61
2022/06/20 03:52:22;;;;;;;4.05;1.90;;;;;;;;;;21004832;28;20052;-60
2022/06/20 04:02:50;;;;;;;7.63;2.17;;;;;;;;;;21003206;28;20048;-60
2022/06/20 04:13:19;;;;;;;3.33;1.73;;;;;;;;;;21003522;28;20447;-61
2022/06/20 04:24:00;;;;;;;4.80;2.13;;;;;;;;;;21001949;28;20060;-59
2022/06/20 04:34:26;;;;;;;7.05;2.00;;;;;;;;;;21000041;28;20048;-60
2022/06/20 04:45:14;;;;;;;11.07;2.83;;;;;;;;;;21000114;28;20048;-62
2022/06/20 04:55:36;;;;;;;4.68;2.03;;;;;;;;;;21001334;28;20049;-60
2022/06/20 05:05:59;;;;;;;5.22;2.10;;;;;;;;;;20997749;28;20067;-60
2022/06/20 05:16:22;;;;;;;5.25;2.50;;;;;;;;;;20996523;28;20040;-61
2022/06/20 05:26:46;;;;;;;6.68;2.38;;;;;;;;;;20997849;28;20057;-61
2022/06/20 05:37:13;;;;;;;7.07;2.35;;;;;;;;;;20998285;28;20056;-59
2022/06/20 05:47:35;;;;;;;8.65;3.20;;;;;;;;;;20996403;28;20060;-61
2022/06/20 05:57:51;;;;;;;11.50;3.55;;;;;;;;;;20994976;28;20048;-62
2022/06/20 06:08:16;;;;;;;20.43;3.60;;;;;;;;;;20995371;28;20052;-61
2022/06/20 06:18:42;;;;;;;10.75;4.63;;;;;;;;;;20995018;28;20048;-61
2022/06/20 06:29:05;;;;;;;9.52;4.35;;;;;;;;;;20995053;28;20461;-61
2022/06/20 06:39:26;;;;;;;;;;;;;;;;;;20995129;28;20052;-60
2022/06/20 06:49:53;;;;;;;10.20;4.18;;;23.60;43.20;;;;;;20993249;28;19924;-60
2022/06/20 07:00:37;;;;;;;10.88;2.90;;;23.80;43.10;;;;;;20998842;28;20064;-58
2022/06/20 07:11:21;;;;;;;5.88;2.30;;;24.70;41.70;;;;;;21007267;28;20048;-60
2022/06/20 07:21:43;;;;;;;6.28;3.17;;;25.10;41.70;;;;;;21005806;28;20049;-61
2022/06/20 07:32:17;;;;;;;5.70;2.47;;;25.50;41.30;;;;;;21004473;28;20049;-60
2022/06/20 07:42:25;;;;;;;6.47;2.50;;;25.60;41.00;;;;;;21003997;28;20056;-60
2022/06/20 07:52:52;;;;;;;8.68;2.42;;;26.00;40.60;;;;;;21003012;28;20105;-60
2022/06/20 08:03:50;;;;;;;9.10;2.35;;;26.30;39.60;;;;;;21003175;28;20071;-60
2022/06/20 08:13:57;;;;;;;6.57;2.47;;;26.70;38.20;;;;;;20911714;28;20059;-62
2022/06/20 08:24:22;;;;;;;7.00;3.10;;;26.40;38.40;;;;;;20911870;28;20508;-60
2022/06/20 08:34:55;;;;;;;6.97;3.05;;;26.40;38.00;;;;;;20909270;28;20488;-61
2022/06/20 08:45:16;;;;;;;7.63;2.45;;;;;;;;;;20946089;28;20060;-53
2022/06/20 08:55:28;;;;;;;8.00;3.63;;;;;;;;;;20995153;28;20044;-59
2022/06/20 09:05:48;;;;;;;7.25;2.45;;;;;;;;;;20995530;28;20091;-63
2022/06/20 09:16:17;;;;;;;7.07;2.45;;;;;;;;;;20995021;28;20128;-63
2022/06/20 09:26:31;;;;;;;7.85;2.42;;;;;;;;;;20990025;28;20049;-54
2022/06/20 09:36:39;;;;;;;4.90;2.35;;;;;;;;;;20992316;28;20059;-56
2022/06/20 09:46:49;;;;;;;7.25;1.95;;;;;;;;;;20991974;28;20048;-56
2022/06/20 09:57:31;;;;;;;4.90;1.90;;;;;;;;;;20985656;28;20060;-55
2022/06/20 10:07:47;;;;;;;4.75;1.95;;;;;;;;;;20974678;28;20060;-56
2022/06/20 10:17:48;;;;;;;5.18;1.50;;;;;;;;;;20941087;28;20055;-60
2022/06/20 10:28:03;;;;;;;7.70;2.08;;;;;;;;;;20956638;28;20072;-58
2022/06/20 10:38:39;;;;;;;5.07;1.80;;;;;;;;;;20998424;28;20155;-57
2022/06/20 10:49:15;;;;;;;4.68;1.80;;;;;;;;;;20994233;28;20059;-63
2022/06/20 10:59:46;;;;;;;4.57;1.60;;;;;;;;;;21003264;28;20052;-60
2022/06/20 11:10:40;;;;;;;12.32;2.03;;;;;;;;;;20989105;28;20102;-59
2022/06/20 11:21:20;;;;;;;5.93;2.13;;;;;;;;;;20910676;28;20429;-59
2022/06/20 11:32:13;;;;;;;5.80;1.80;;;28.10;32.80;;;;;;20910580;28;20053;-61
2022/06/20 11:42:52;;;;;;;7.53;2.00;;;;;;;;;;20575313;28;20055;-59
2022/06/20 11:53:22;;;;;;;4.85;1.50;;;;;;;;;;20629092;28;20491;-57
2022/06/20 12:03:47;;;;;;;4.55;1.60;;;;;;;;;;20661211;28;20050;-58
2022/06/20 12:14:14;;;;;;;5.88;2.03;;;;;;;;;;20837404;28;20044;-56
2022/06/20 12:24:38;;;;;;;3.67;1.48;;;;;;;;;;21001930;28;20098;-62
2022/06/20 12:35:03;;;;;;;6.82;1.88;;;;;;;;;;21001428;28;20429;-61
2022/06/20 12:45:27;;;;;;;3.60;1.40;;;;;;;;;;20999660;28;20079;-62
2022/06/20 12:56:01;;;;;;;5.78;1.63;;;;;;;;;;20997652;28;20052;-62
2022/06/20 13:06:24;;;;;;;4.53;1.73;;;;;;;;;;20997912;28;20060;-61
2022/06/20 13:16:39;;;;;;;5.60;1.40;;;;;;;;;;20997911;28;20131;-61
2022/06/20 13:26:59;;;;;;;3.22;1.73;;;;;;;;;;20995924;28;20080;-63
2022/06/20 13:37:28;;;;;;;4.38;1.65;;;;;;;;;;20997013;28;20504;-63
2022/06/20 13:47:55;;;;;;;4.20;1.38;;;;;;;;;;20994885;28;20052;-61
2022/06/20 13:58:25;;;;;;;3.83;1.25;;;;;;;;;;20995856;28;20041;-63
2022/06/20 14:08:49;;;;;;;7.67;1.13;;;;;;;;;;21006049;28;20044;-61
2022/06/20 14:19:34;;;;;;;4.50;1.63;;;;;;;;;;21021427;28;20056;-63
2022/06/20 14:30:05;;;;;;;4.38;1.77;;;;;;;;;;20846998;28;20080;-62
2022/06/20 14:40:27;;;;;;;11.10;2.22;;;;;;;;;;20847233;28;20049;-62
2022/06/20 14:50:56;;;;;;;6.05;1.50;;;;;;;;;;20846803;28;20057;-56
2022/06/20 15:01:36;;;;;;;7.03;1.48;;;;;;;;;;20911798;28;20136;-57
2022/06/20 15:12:13;;;;;;;4.83;1.70;;;;;;;;;;21019962;28;20412;-57
2022/06/20 15:22:39;;;;;;;7.72;1.65;;;;;;;;;;21011449;28;20055;-62
2022/06/20 15:33:02;;;;;;;4.95;2.00;;;;;;;;;;21005511;28;20418;-59
2022/06/20 15:43:23;;;;;;;5.65;2.17;;;;;;;;;;21004719;28;20052;-61
2022/06/20 15:53:48;;;;;;;5.18;1.90;;;;;;;;;;21004606;28;20055;-56
2022/06/20 16:04:06;;;;;;;4.25;1.80;;;;;;;;;;21001972;28;20060;-58
2022/06/20 16:14:31;;;;;;;3.70;1.45;;;;;;;;;;21001972;28;20048;-57
2022/06/20 16:25:05;;;;;;;4.60;1.50;;;;;;;;;;21000683;28;20056;-59
2022/06/20 16:35:26;;;;;;;4.72;2.00;;;;;;;;;;21000730;28;20146;-57
2022/06/20 16:45:52;;;;;;;5.93;2.05;;;;;;;;;;20999192;28;20562;-59
2022/06/20 16:56:15;;;;;;;4.45;1.35;;;;;;;;;;20998701;28;20078;-58
2022/06/20 17:06:36;;;;;;;6.18;1.50;;;;;;;;;;20996987;28;20113;-58
2022/06/20 17:17:12;;;;;;;4.60;1.45;;;;;;;;;;20998571;28;20044;-68
2022/06/20 17:27:23;;;;;;;3.72;1.60;;;;;;;;;;20996307;28;20056;-59
2022/06/20 17:37:52;;;;;;;4.78;2.47;;;;;;;;;;20995013;28;20053;-56
2022/06/20 17:48:12;;;;;;;5.60;2.05;;;;;;;;;;20994672;28;20120;-63
2022/06/20 17:58:52;;;;;;;5.78;1.98;;;;;;;;;;20995253;28;20504;-60
2022/06/20 18:09:09;;;;;;;4.75;1.95;;;;;;;;;;20820832;28;20140;-71
2022/06/20 18:19:18;;;;;;;4.18;1.45;;;;;;;;;;20820246;28;20045;-68
2022/06/20 18:29:24;;;;;;;6.07;1.13;;;;;;;;;;20819418;28;20064;-70
2022/06/20 18:39:28;;;;;;;5.03;1.50;;;;;;;;;;20885574;28;20052;-69
2022/06/20 18:49:38;;;;;;;4.93;1.27;;;;;;;;;;20991476;28;20048;-59
2022/06/20 18:59:54;;;;;;;2.72;1.63;;;;;;;;;;21000012;28;20090;-58
2022/06/20 19:10:06;;;;;;;5.65;1.48;;;;;;;;;;21007002;28;20075;-59
2022/06/20 19:20:17;;;;;;;5.00;1.03;;;;;;;;;;21005712;28;20504;-58
2022/06/20 19:30:39;;;;;;;4.38;1.50;;;;;;;;;;21004845;28;20048;-56
2022/06/20 19:41:02;;;;;;;5.65;1.65;;;;;;;;;;21003931;28;20477;-60
2022/06/20 19:51:10;;;;;;;3.13;1.20;;;;;;;;;;21003353;28;20053;-60
2022/06/20 20:01:24;;;;;;;3.45;1.73;;;;;;;;;;21002994;28;20416;-59
2022/06/20 20:11:32;;;;;;;3.67;1.20;;;;;;;;;;20998987;28;20139;-56
2022/06/20 20:21:40;;;;;;;4.40;1.40;;;;;;;;;;21000945;28;20049;-61
2022/06/20 20:31:49;;;;;;;4.32;1.50;;;;;;;;;;20999555;28;20060;-61
2022/06/20 20:41:51;;;;;;;6.93;2.17;;;;;;;;;;20998324;28;20055;-57
2022/06/20 20:51:52;;;;;;;;;;;;;;;;;;20999879;28;20492;-61
2022/06/20 21:01:55;;;;;;;5.73;1.40;;;;;;;;;;20999705;28;20011;-60
2022/06/20 21:11:58;;;;;;;3.97;1.70;;;;;;;;;;20996973;28;20044;-67
2022/06/20 21:22:14;;;;;;;5.03;2.40;;;;;;;;;;21236341;27;20391;-69
2022/06/20 21:32:32;;;;;;;3.40;1.80;;;;;;;;;;21152902;27;20389;-66
2022/06/20 21:42:57;;;;;;;6.22;1.70;;;;;;;;;;21153262;28;20557;-61
2022/06/20 21:53:29;;;;;;;8.00;2.08;;;;;;;;;;21149860;28;20044;-70
2022/06/20 22:03:43;;;;;;;7.25;2.40;;;;;;;;;;21149185;28;20085;-68
2022/06/20 22:13:52;;;;;;;5.63;2.25;;;;;;;;;;21149165;28;20044;-63
2022/06/20 22:24:05;;;;;;;3.78;1.60;;;;;;;;;;21147539;28;20140;-62
2022/06/20 22:34:13;;;;;;;4.35;1.52;;;;;;;;;;21147248;28;20086;-60
2022/06/20 22:44:15;;;;;;;5.57;2.15;;;;;;;;;;21090270;28;20048;-62
2022/06/20 22:54:21;;;;;;;3.70;1.80;;;;;;;;;;21089367;28;20044;-65
2022/06/20 23:04:30;;;;;;;3.97;2.80;;;;;;;;;;21088251;28;20084;-61
2022/06/20 23:14:34;;;;;;;7.93;2.72;;;;;;;;;;21087550;28;20084;-64
2022/06/20 23:24:36;;;;;;;7.35;3.08;;;;;;;;;;21086737;28;20063;-68
2022/06/20 23:34:40;;;;;;;3.72;1.83;;;;;;;;;;21086047;28;20147;-60
2022/06/20 23:44:43;;;;;;;3.25;1.70;;;;;;;;;;21085743;28;20056;-66
2022/06/20 23:54:46;;;;;;;6.13;2.78;;;;;;;;;;21083419;28;20048;-68
